createdAt,value
2018-08-07T00:01:58.268Z,15.50
2018-08-07T00:04:26.463Z,10.60
2018-08-07T00:06:54.822Z,12.40
2018-08-07T00:09:23.046Z,10.83
2018-08-07T00:11:51.271Z,11.53
2018-08-07T00:14:19.493Z,9.90
2018-08-07T00:16:47.725Z,10.90
2018-08-07T00:19:16.021Z,10.03
2018-08-07T00:21:44.451Z,10.00
2018-08-07T00:24:12.661Z,10.20
2018-08-07T00:26:41.018Z,9.40
2018-08-07T00:29:09.218Z,10.90
2018-08-07T00:31:37.459Z,10.33
2018-08-07T00:34:05.644Z,10.70
2018-08-07T00:36:33.858Z,10.40
2018-08-07T00:39:02.100Z,12.87
2018-08-07T00:41:30.289Z,10.30
2018-08-07T00:43:58.574Z,10.67
2018-08-07T00:46:26.780Z,10.83
2018-08-07T00:48:54.999Z,10.60
2018-08-07T00:51:23.184Z,11.20
2018-08-07T00:53:51.358Z,9.60
2018-08-07T00:56:19.540Z,10.30
2018-08-07T00:58:47.724Z,10.90
2018-08-07T01:01:15.905Z,10.57
2018-08-07T01:03:44.120Z,10.40
2018-08-07T01:06:12.324Z,11.63
2018-08-07T01:08:40.573Z,11.03
2018-08-07T01:11:08.753Z,12.37
2018-08-07T01:13:36.954Z,10.70
2018-08-07T01:16:05.450Z,10.50
2018-08-07T01:18:33.682Z,10.47
2018-08-07T01:21:01.916Z,10.83
2018-08-07T01:23:30.161Z,11.50
2018-08-07T01:25:58.361Z,11.03
2018-08-07T01:28:26.579Z,10.27
2018-08-07T01:30:54.786Z,10.37
2018-08-07T01:33:22.977Z,9.77
2018-08-07T01:35:51.195Z,10.50
2018-08-07T01:38:19.512Z,10.40
2018-08-07T01:40:47.698Z,11.20
2018-08-07T01:43:15.903Z,10.90
2018-08-07T01:45:44.067Z,10.53
2018-08-07T01:48:12.250Z,10.63
2018-08-07T01:50:40.485Z,10.67
2018-08-07T01:53:08.671Z,10.93
2018-08-07T01:55:36.905Z,10.67
2018-08-07T01:58:05.118Z,10.53
2018-08-07T02:00:33.318Z,11.87
2018-08-07T02:03:01.643Z,11.40
2018-08-07T02:05:29.827Z,12.07
2018-08-07T02:07:58.016Z,10.37
2018-08-07T02:10:26.242Z,10.33
2018-08-07T02:12:54.448Z,10.87
2018-08-07T02:15:22.653Z,11.90
2018-08-07T02:17:50.869Z,9.93
2018-08-07T02:20:19.075Z,11.73
2018-08-07T02:22:47.685Z,10.53
2018-08-07T02:25:17.183Z,11.23
2018-08-07T02:27:45.945Z,10.43
2018-08-07T02:30:15.010Z,11.50
2018-08-07T02:32:43.248Z,10.97
2018-08-07T02:35:12.789Z,11.13
2018-08-07T02:37:42.185Z,11.70
2018-08-07T02:40:11.545Z,11.80
2018-08-07T02:42:39.798Z,12.27
2018-08-07T02:45:10.021Z,12.07
2018-08-07T02:47:38.505Z,11.77
2018-08-07T02:50:06.979Z,10.67
2018-08-07T02:52:35.815Z,11.33
2018-08-07T02:55:04.600Z,13.43
2018-08-07T02:57:32.858Z,12.50
2018-08-07T03:00:01.704Z,12.73
2018-08-07T03:02:29.883Z,12.70
2018-08-07T03:04:58.228Z,11.90
2018-08-07T03:07:26.466Z,12.20
2018-08-07T03:09:55.271Z,11.70
2018-08-07T03:12:23.628Z,12.83
2018-08-07T03:14:51.894Z,12.73
2018-08-07T03:17:20.218Z,11.47
2018-08-07T03:19:48.514Z,12.33
2018-08-07T03:22:16.720Z,13.13
2018-08-07T03:24:44.978Z,13.40
2018-08-07T03:27:13.233Z,12.43
2018-08-07T03:29:41.470Z,12.70
2018-08-07T03:32:09.725Z,13.20
2018-08-07T03:34:38.012Z,14.50
2018-08-07T03:37:06.377Z,12.90
2018-08-07T03:39:34.606Z,12.17
2018-08-07T03:42:02.834Z,13.00
2018-08-07T03:44:31.174Z,12.87
2018-08-07T03:46:59.401Z,13.60
2018-08-07T03:49:27.666Z,15.90
2018-08-07T03:51:55.953Z,15.10
2018-08-07T03:54:24.181Z,14.20
2018-08-07T03:56:52.469Z,13.77
2018-08-07T03:59:20.678Z,13.73
2018-08-07T04:01:48.895Z,13.00
2018-08-07T04:04:17.081Z,18.60
2018-08-07T04:06:45.578Z,14.70
2018-08-07T04:09:14.997Z,14.07
2018-08-07T04:11:43.348Z,14.97
2018-08-07T04:14:12.167Z,15.17
2018-08-07T04:16:57.061Z,14.13
2018-08-07T04:19:27.489Z,14.57
2018-08-07T04:21:56.677Z,14.60
2018-08-07T04:24:25.611Z,16.10
2018-08-07T04:26:53.941Z,14.33
2018-08-07T04:29:22.186Z,14.90
2018-08-07T04:31:50.554Z,15.77
2018-08-07T04:34:18.800Z,14.23
2018-08-07T04:36:47.034Z,16.40
2018-08-07T04:39:15.244Z,14.20
2018-08-07T04:41:43.459Z,15.80
2018-08-07T04:44:11.673Z,15.20
2018-08-07T04:46:39.943Z,14.80
2018-08-07T04:49:08.274Z,14.97
2018-08-07T04:51:36.985Z,16.87
2018-08-07T04:54:05.394Z,15.03
2018-08-07T04:56:33.378Z,15.50
2018-08-07T04:59:01.668Z,16.13
2018-08-07T05:01:30.016Z,15.13
2018-08-07T05:03:58.222Z,14.70
2018-08-07T05:06:26.462Z,15.73
2018-08-07T05:08:54.688Z,15.07
2018-08-07T05:11:22.869Z,14.43
2018-08-07T05:13:51.147Z,15.70
2018-08-07T05:16:19.790Z,15.90
2018-08-07T05:18:48.047Z,14.40
2018-08-07T05:21:16.391Z,14.90
2018-08-07T05:23:44.646Z,13.83
2018-08-07T05:26:12.922Z,16.47
2018-08-07T05:28:41.388Z,14.30
2018-08-07T05:31:09.560Z,15.30
2018-08-07T05:33:38.404Z,15.17
2018-08-07T05:36:06.919Z,15.97
2018-08-07T05:38:35.122Z,17.33
2018-08-07T05:41:03.364Z,13.47
2018-08-07T05:43:32.439Z,14.80
2018-08-07T05:46:00.712Z,12.73
2018-08-07T05:48:28.959Z,11.97
2018-08-07T05:50:57.576Z,10.57
2018-08-07T05:53:25.419Z,13.90
2018-08-07T05:55:53.667Z,9.47
2018-08-07T05:58:21.894Z,9.13
2018-08-07T06:00:50.156Z,9.20
2018-08-07T06:03:18.391Z,13.07
2018-08-07T06:05:46.363Z,11.07
2018-08-07T06:08:14.558Z,7.90
2018-08-07T06:10:42.834Z,10.45
2018-08-07T06:13:11.011Z,12.10
2018-08-07T06:15:39.304Z,13.53
2018-08-07T06:18:07.529Z,9.67
2018-08-07T06:20:35.753Z,10.57
2018-08-07T06:23:03.967Z,9.37
2018-08-07T06:25:32.156Z,10.30
2018-08-07T06:28:00.314Z,8.87
2018-08-07T06:30:28.583Z,9.00
2018-08-07T06:32:56.793Z,12.77
2018-08-07T06:35:25.006Z,10.17
2018-08-07T06:37:53.314Z,7.10
2018-08-07T06:40:21.522Z,8.20
2018-08-07T06:42:49.761Z,9.00
2018-08-07T06:45:18.450Z,8.43
2018-08-07T06:47:46.675Z,8.37
2018-08-07T06:50:18.309Z,8.07
2018-08-07T06:52:47.177Z,8.03
2018-08-07T06:55:15.467Z,11.50
2018-08-07T06:57:43.814Z,7.97
2018-08-07T07:00:19.254Z,9.00
2018-08-07T07:02:47.763Z,8.20
2018-08-07T07:05:15.979Z,8.73
2018-08-07T07:07:44.342Z,10.50
2018-08-07T07:10:13.221Z,6.70
2018-08-07T07:12:42.513Z,7.33
2018-08-07T07:15:12.227Z,7.63
2018-08-07T07:17:40.782Z,7.77
2018-08-07T07:20:11.305Z,7.70
2018-08-07T07:22:39.637Z,7.10
2018-08-07T07:25:08.325Z,7.80
2018-08-07T07:27:36.655Z,6.63
2018-08-07T07:30:08.409Z,8.60
2018-08-07T07:32:36.626Z,8.60
2018-08-07T07:35:05.521Z,7.97
2018-08-07T07:37:33.754Z,9.10
2018-08-07T07:40:02.452Z,7.10
2018-08-07T07:42:30.667Z,7.17
2018-08-07T07:44:58.876Z,10.57
2018-08-07T07:47:27.099Z,7.53
2018-08-07T07:49:55.385Z,6.17
2018-08-07T07:52:23.614Z,7.07
2018-08-07T07:54:51.928Z,9.80
2018-08-07T07:57:20.118Z,6.10
2018-08-07T07:59:48.424Z,5.80
2018-08-07T08:02:16.686Z,5.53
2018-08-07T08:04:44.961Z,6.67
2018-08-07T08:07:13.218Z,5.73
2018-08-07T08:09:42.376Z,6.30
2018-08-07T08:12:12.620Z,7.07
2018-08-07T08:14:40.949Z,5.83
2018-08-07T08:17:09.190Z,6.40
2018-08-07T08:19:37.423Z,6.10
2018-08-07T08:22:05.715Z,6.23
2018-08-07T08:24:33.899Z,6.00
2018-08-07T08:27:02.170Z,6.53
2018-08-07T08:29:30.573Z,6.03
2018-08-07T08:31:59.393Z,6.40
2018-08-07T08:34:27.590Z,6.00
2018-08-07T08:36:55.893Z,6.27
2018-08-07T08:39:24.157Z,6.03
2018-08-07T08:41:52.346Z,5.47
2018-08-07T08:44:20.618Z,5.47
2018-08-07T08:46:48.794Z,6.30
2018-08-07T08:49:17.147Z,5.57
2018-08-07T08:51:45.425Z,6.47
2018-08-07T08:54:13.643Z,5.80
2018-08-07T08:56:41.847Z,6.90
2018-08-07T08:59:10.187Z,5.90
2018-08-07T09:01:38.389Z,6.53
2018-08-07T09:04:06.796Z,5.93
2018-08-07T09:06:34.983Z,7.00
2018-08-07T09:09:03.225Z,6.73
2018-08-07T09:11:31.621Z,6.47
2018-08-07T09:13:59.817Z,6.20
2018-08-07T09:16:28.011Z,7.17
2018-08-07T09:18:56.229Z,6.43
2018-08-07T09:21:25.018Z,8.27
2018-08-07T09:23:53.027Z,5.90
2018-08-07T09:26:21.242Z,6.70
2018-08-07T09:28:49.641Z,5.73
2018-08-07T09:31:17.969Z,6.70
2018-08-07T09:33:46.061Z,5.93
2018-08-07T09:36:14.257Z,6.50
2018-08-07T09:38:42.497Z,6.73
2018-08-07T09:41:10.734Z,6.07
2018-08-07T09:43:39.012Z,6.47
2018-08-07T09:46:07.239Z,6.90
2018-08-07T09:48:35.465Z,6.57
2018-08-07T09:51:03.726Z,6.30
2018-08-07T09:53:31.914Z,6.37
2018-08-07T09:56:00.116Z,6.47
2018-08-07T09:58:28.362Z,5.97
2018-08-07T10:01:02.071Z,7.03
2018-08-07T10:03:30.241Z,6.63
2018-08-07T10:05:58.500Z,6.47
2018-08-07T10:08:26.714Z,6.50
2018-08-07T10:10:55.108Z,7.03
2018-08-07T10:13:23.315Z,5.90
2018-08-07T10:15:51.602Z,6.50
2018-08-07T10:18:19.881Z,5.70
2018-08-07T10:20:48.205Z,5.13
2018-08-07T10:23:16.570Z,6.27
2018-08-07T10:25:44.727Z,14.77
2018-08-07T10:28:12.930Z,10.23
2018-08-07T10:30:41.137Z,5.67
2018-08-07T10:33:09.337Z,5.33
2018-08-07T10:35:37.733Z,5.53
2018-08-07T10:38:05.919Z,4.83
2018-08-07T10:40:34.150Z,6.83
2018-08-07T10:43:02.435Z,5.57
2018-08-07T10:45:30.669Z,5.07
2018-08-07T10:47:58.992Z,5.00
2018-08-07T10:50:28.391Z,5.47
2018-08-07T10:52:57.190Z,5.27
2018-08-07T10:55:25.864Z,5.60
2018-08-07T10:58:00.204Z,5.00
2018-08-07T11:00:31.568Z,4.90
2018-08-07T11:02:59.908Z,5.17
2018-08-07T11:05:28.521Z,4.63
2018-08-07T11:07:56.862Z,5.53
2018-08-07T11:10:25.070Z,5.37
2018-08-07T11:12:53.919Z,6.50
2018-08-07T11:15:26.117Z,5.90
2018-08-07T11:17:55.388Z,5.90
2018-08-07T11:20:23.754Z,4.40
2018-08-07T11:22:53.001Z,5.10
2018-08-07T11:25:22.698Z,4.80
2018-08-07T11:27:50.902Z,4.97
2018-08-07T11:30:21.101Z,4.90
2018-08-07T11:32:49.830Z,4.53
2018-08-07T11:35:18.749Z,4.13
2018-08-07T11:37:48.831Z,4.50
2018-08-07T11:40:19.414Z,4.80
2018-08-07T11:42:48.541Z,7.47
2018-08-07T11:45:17.949Z,4.10
2018-08-07T11:47:46.275Z,4.63
2018-08-07T11:50:16.362Z,4.83
2018-08-07T11:52:44.611Z,4.83
2018-08-07T11:55:14.326Z,4.50
2018-08-07T11:57:42.678Z,4.60
2018-08-07T12:00:14.126Z,5.00
2018-08-07T12:02:42.421Z,4.60
2018-08-07T12:05:10.685Z,4.00
2018-08-07T12:07:39.669Z,4.30
2018-08-07T12:10:09.354Z,5.17
2018-08-07T12:12:37.653Z,5.17
2018-08-07T12:15:06.669Z,5.40
2018-08-07T12:17:35.252Z,5.43
2018-08-07T12:20:03.488Z,8.90
2018-08-07T12:22:31.472Z,5.60
2018-08-07T12:24:59.836Z,5.77
2018-08-07T12:27:28.134Z,5.40
2018-08-07T12:29:56.350Z,4.80
2018-08-07T12:32:24.592Z,6.03
2018-08-07T12:34:52.801Z,5.20
2018-08-07T12:37:21.031Z,4.77
2018-08-07T12:39:49.306Z,5.67
2018-08-07T12:42:17.610Z,5.70
2018-08-07T12:44:45.885Z,5.60
2018-08-07T12:47:14.101Z,5.47
2018-08-07T12:49:42.375Z,5.07
2018-08-07T12:52:10.626Z,5.70
2018-08-07T12:54:38.927Z,5.27
2018-08-07T12:57:07.358Z,5.20
2018-08-07T12:59:35.557Z,4.27
2018-08-07T13:02:03.803Z,6.10
2018-08-07T13:04:32.019Z,5.33
2018-08-07T13:07:00.254Z,4.90
2018-08-07T13:09:28.633Z,5.73
2018-08-07T13:11:56.851Z,5.60
2018-08-07T13:14:25.091Z,4.43
2018-08-07T13:16:53.403Z,4.90
2018-08-07T13:19:21.597Z,4.70
2018-08-07T13:21:49.855Z,5.00
2018-08-07T13:24:18.129Z,6.37
2018-08-07T13:26:46.323Z,4.90
2018-08-07T13:29:14.613Z,4.73
2018-08-07T13:31:42.929Z,5.03
2018-08-07T13:34:11.161Z,5.00
2018-08-07T13:36:39.357Z,4.60
2018-08-07T13:39:09.421Z,5.80
2018-08-07T13:41:37.633Z,5.97
2018-08-07T13:44:06.588Z,4.87
2018-08-07T13:46:34.791Z,4.77
2018-08-07T13:49:03.522Z,5.27
2018-08-07T13:51:31.429Z,5.50
2018-08-07T13:53:59.640Z,5.23
2018-08-07T13:56:27.885Z,5.20
2018-08-07T13:58:56.099Z,5.67
2018-08-07T14:01:24.373Z,5.93
2018-08-07T14:03:52.572Z,6.47
2018-08-07T14:06:20.799Z,5.47
2018-08-07T14:08:48.999Z,4.93
2018-08-07T14:11:17.472Z,6.03
2018-08-07T14:13:45.848Z,5.93
2018-08-07T14:16:14.106Z,4.80
2018-08-07T14:18:42.381Z,5.40
2018-08-07T14:21:11.460Z,6.60
2018-08-07T14:23:39.679Z,5.23
2018-08-07T14:26:07.968Z,5.67
2018-08-07T14:28:36.206Z,5.93
2018-08-07T14:31:04.485Z,5.30
2018-08-07T14:33:32.836Z,5.37
2018-08-07T14:36:01.111Z,5.43
2018-08-07T14:38:29.386Z,5.57
2018-08-07T14:40:57.652Z,6.70
2018-08-07T14:43:26.030Z,4.60
2018-08-07T14:45:54.407Z,4.60
2018-08-07T14:48:22.631Z,4.20
2018-08-07T14:50:50.901Z,5.90
2018-08-07T14:53:19.317Z,5.23
2018-08-07T14:55:47.585Z,4.73
2018-08-07T14:58:15.933Z,5.97
2018-08-07T15:00:44.202Z,5.40
2018-08-07T15:03:12.443Z,5.53
2018-08-07T15:05:40.718Z,4.20
2018-08-07T15:08:08.752Z,3.37
2018-08-07T15:10:36.994Z,4.10
2018-08-07T15:13:05.197Z,4.30
2018-08-07T15:15:33.578Z,5.17
2018-08-07T15:18:01.889Z,7.93
2018-08-07T15:20:31.090Z,6.53
2018-08-07T15:22:59.517Z,4.57
2018-08-07T15:25:27.754Z,4.50
2018-08-07T15:27:55.974Z,4.73
2018-08-07T15:30:25.501Z,4.87
2018-08-07T15:32:54.067Z,4.60
2018-08-07T15:35:23.749Z,4.73
2018-08-07T15:37:52.034Z,4.10
2018-08-07T15:40:20.944Z,4.90
2018-08-07T15:42:49.202Z,3.80
2018-08-07T15:45:21.982Z,4.20
2018-08-07T15:47:50.421Z,4.50
2018-08-07T15:50:19.430Z,3.97
2018-08-07T15:52:49.296Z,5.93
2018-08-07T15:55:19.193Z,6.40
2018-08-07T15:57:47.552Z,5.07
2018-08-07T16:00:17.320Z,4.90
2018-08-07T16:02:45.557Z,5.33
2018-08-07T16:05:13.827Z,5.00
2018-08-07T16:07:42.015Z,6.30
2018-08-07T16:10:13.542Z,5.07
2018-08-07T16:12:41.751Z,5.43
2018-08-07T16:15:10.009Z,5.40
2018-08-07T16:17:38.451Z,5.30
2018-08-07T16:20:07.429Z,7.40
2018-08-07T16:22:36.133Z,4.90
2018-08-07T16:25:05.224Z,5.43
2018-08-07T16:27:33.463Z,5.10
2018-08-07T16:30:01.810Z,4.93
2018-08-07T16:32:30.113Z,6.53
2018-08-07T16:34:58.354Z,5.57
2018-08-07T16:37:26.643Z,5.67
2018-08-07T16:39:54.858Z,5.40
2018-08-07T16:42:23.133Z,5.67
2018-08-07T16:44:51.358Z,7.40
2018-08-07T16:47:19.685Z,7.10
2018-08-07T16:49:48.067Z,6.97
2018-08-07T16:52:16.349Z,7.00
2018-08-07T16:54:45.234Z,7.53
2018-08-07T16:57:13.506Z,6.10
2018-08-07T16:59:41.699Z,4.87
2018-08-07T17:02:09.909Z,5.50
2018-08-07T17:04:38.282Z,5.50
2018-08-07T17:07:06.554Z,4.73
2018-08-07T17:09:34.790Z,5.07
2018-08-07T17:12:03.041Z,5.37
2018-08-07T17:14:31.285Z,4.60
2018-08-07T17:16:59.630Z,5.10
2018-08-07T17:19:27.938Z,7.23
2018-08-07T17:21:56.268Z,4.90
2018-08-07T17:24:24.486Z,4.73
2018-08-07T17:26:52.722Z,6.57
2018-08-07T17:29:20.988Z,13.30
2018-08-07T17:31:49.213Z,5.27
2018-08-07T17:34:17.601Z,8.20
2018-08-07T17:36:45.887Z,5.50
2018-08-07T17:39:14.135Z,4.90
2018-08-07T17:41:42.363Z,6.03
2018-08-07T17:44:10.783Z,5.27
2018-08-07T17:46:39.178Z,5.07
2018-08-07T17:49:07.403Z,5.17
2018-08-07T17:51:35.686Z,6.53
2018-08-07T17:54:04.103Z,5.73
2018-08-07T17:56:32.368Z,5.63
2018-08-07T17:59:00.777Z,5.20
2018-08-07T18:01:29.015Z,5.53
2018-08-07T18:03:57.260Z,5.83
2018-08-07T18:06:25.560Z,5.57
2018-08-07T18:08:53.679Z,5.97
2018-08-07T18:11:21.889Z,5.73
2018-08-07T18:13:50.231Z,5.80
2018-08-07T18:16:18.597Z,5.83
2018-08-07T18:18:46.900Z,5.80
2018-08-07T18:21:15.089Z,6.07
2018-08-07T18:23:43.282Z,5.63
2018-08-07T18:26:11.471Z,6.57
2018-08-07T18:28:39.658Z,5.17
2018-08-07T18:31:07.859Z,5.97
2018-08-07T18:33:36.058Z,6.47
2018-08-07T18:36:04.286Z,7.23
2018-08-07T18:38:32.484Z,6.50
2018-08-07T18:41:00.742Z,6.60
2018-08-07T18:43:28.919Z,7.57
2018-08-07T18:45:57.147Z,6.77
2018-08-07T18:48:25.377Z,10.33
2018-08-07T18:50:53.579Z,8.50
2018-08-07T18:53:21.850Z,7.30
2018-08-07T18:55:50.092Z,7.07
2018-08-07T18:58:18.310Z,9.30
2018-08-07T19:00:46.549Z,8.13
2018-08-07T19:03:14.807Z,9.00
2018-08-07T19:05:42.993Z,7.93
2018-08-07T19:08:11.237Z,7.80
2018-08-07T19:10:39.599Z,29.93
2018-08-07T19:13:07.921Z,28.80
2018-08-07T19:15:36.254Z,15.03
2018-08-07T19:18:04.728Z,10.90
2018-08-07T19:20:33.886Z,7.80
2018-08-07T19:23:02.142Z,9.37
2018-08-07T19:25:30.522Z,7.87
2018-08-07T19:27:58.901Z,8.20
2018-08-07T19:30:27.187Z,8.17
2018-08-07T19:32:55.628Z,7.37
2018-08-07T19:35:24.131Z,7.90
2018-08-07T19:37:52.517Z,8.03
2018-08-07T19:40:20.943Z,8.10
2018-08-07T19:42:49.963Z,8.40
2018-08-07T19:45:18.471Z,8.77
2018-08-07T19:47:47.167Z,8.93
2018-08-07T19:50:17.219Z,8.73
2018-08-07T19:52:45.502Z,8.33
2018-08-07T19:55:15.638Z,8.90
2018-08-07T19:57:43.919Z,10.80
2018-08-07T20:00:18.618Z,10.10
2018-08-07T20:02:48.761Z,8.80
2018-08-07T20:05:17.141Z,9.40
2018-08-07T20:07:45.448Z,10.87
2018-08-07T20:10:15.059Z,21.07
2018-08-07T20:12:45.019Z,10.87
2018-08-07T20:15:20.211Z,10.00
2018-08-07T20:17:49.011Z,11.27
2018-08-07T20:20:17.485Z,10.93
2018-08-07T20:22:46.383Z,10.03
2018-08-07T20:25:14.852Z,9.43
2018-08-07T20:27:43.133Z,10.50
2018-08-07T20:30:13.427Z,10.33
2018-08-07T20:32:42.126Z,13.77
2018-08-07T20:35:10.596Z,8.90
2018-08-07T20:37:39.099Z,9.33
2018-08-07T20:40:09.810Z,9.17
2018-08-07T20:42:37.839Z,10.30
2018-08-07T20:45:06.289Z,9.10
2018-08-07T20:47:35.039Z,10.87
2018-08-07T20:50:04.253Z,9.23
2018-08-07T20:52:34.083Z,9.87
2018-08-07T20:55:02.321Z,10.60
2018-08-07T20:57:30.570Z,8.67
2018-08-07T20:59:58.821Z,9.83
2018-08-07T21:02:27.392Z,9.40
2018-08-07T21:04:56.074Z,10.20
2018-08-07T21:07:26.296Z,8.57
2018-08-07T21:09:55.751Z,12.10
2018-08-07T21:12:24.015Z,10.47
2018-08-07T21:14:53.134Z,12.70
2018-08-07T21:17:21.498Z,11.73
2018-08-07T21:19:50.080Z,11.30
2018-08-07T21:22:18.615Z,10.43
2018-08-07T21:24:46.983Z,9.57
2018-08-07T21:27:15.228Z,9.60
2018-08-07T21:29:43.591Z,9.47
2018-08-07T21:32:11.871Z,8.33
2018-08-07T21:34:40.149Z,9.40
2018-08-07T21:37:08.518Z,9.70
2018-08-07T21:39:36.881Z,9.97
2018-08-07T21:42:05.112Z,9.53
2018-08-07T21:44:33.407Z,10.10
2018-08-07T21:47:01.790Z,11.30
2018-08-07T21:49:30.216Z,8.90
2018-08-07T21:51:58.417Z,9.27
2018-08-07T21:54:26.707Z,8.17
2018-08-07T21:56:54.986Z,9.00
2018-08-07T21:59:23.212Z,8.30
2018-08-07T22:01:51.938Z,9.03
2018-08-07T22:04:20.191Z,9.83
2018-08-07T22:06:48.838Z,10.00
2018-08-07T22:09:17.255Z,11.90
2018-08-07T22:11:45.518Z,11.13
2018-08-07T22:14:13.497Z,9.43
2018-08-07T22:16:41.736Z,9.30
2018-08-07T22:19:09.956Z,8.70
2018-08-07T22:21:38.157Z,9.93
2018-08-07T22:24:06.471Z,9.60
2018-08-07T22:26:34.701Z,8.67
2018-08-07T22:29:02.927Z,8.00
2018-08-07T22:31:31.227Z,9.43
2018-08-07T22:33:59.413Z,9.93
2018-08-07T22:36:27.640Z,10.30
2018-08-07T22:38:55.867Z,9.87
2018-08-07T22:41:24.090Z,9.60
2018-08-07T22:43:52.360Z,9.93
2018-08-07T22:46:20.714Z,8.90
2018-08-07T22:48:48.957Z,9.87
2018-08-07T22:51:17.188Z,8.70
2018-08-07T22:53:45.401Z,9.70
2018-08-07T22:56:13.621Z,9.30
2018-08-07T22:58:41.875Z,11.23
2018-08-07T23:01:10.193Z,13.83
2018-08-07T23:03:38.392Z,11.67
2018-08-07T23:06:07.458Z,67.07
2018-08-07T23:08:35.678Z,10.50
2018-08-07T23:11:03.937Z,10.63
2018-08-07T23:13:32.155Z,15.77
2018-08-07T23:16:00.404Z,11.60
2018-08-07T23:18:28.637Z,11.47
2018-08-07T23:20:56.862Z,12.70
2018-08-07T23:23:25.127Z,14.13
2018-08-07T23:25:53.345Z,10.23
2018-08-07T23:28:21.558Z,10.03
2018-08-07T23:30:49.817Z,10.30
2018-08-07T23:33:18.004Z,11.20
2018-08-07T23:35:46.288Z,10.53
2018-08-07T23:38:14.490Z,11.67
2018-08-07T23:40:42.763Z,8.60
2018-08-07T23:43:10.965Z,8.90
2018-08-07T23:45:39.242Z,9.90
2018-08-07T23:48:07.455Z,9.03
2018-08-07T23:50:35.686Z,9.30
2018-08-07T23:53:03.884Z,10.27
2018-08-07T23:55:32.113Z,11.33
2018-08-07T23:58:00.359Z,12.13
